createdAt,value
2023-08-13T00:00:46.516Z,21.20
2023-08-13T00:03:13.497Z,21.10
2023-08-13T00:05:40.289Z,20.90
2023-08-13T00:08:07.169Z,20.90
2023-08-13T00:10:34.356Z,21.00
2023-08-13T00:13:01.020Z,20.60
2023-08-13T00:15:27.714Z,20.80
2023-08-13T00:17:54.402Z,20.60
2023-08-13T00:20:21.063Z,20.70
2023-08-13T00:22:47.787Z,20.80
2023-08-13T00:25:14.627Z,20.40
2023-08-13T00:27:41.358Z,20.60
2023-08-13T00:30:08.098Z,20.90
2023-08-13T00:32:34.821Z,21.00
2023-08-13T00:35:01.481Z,21.00
2023-08-13T00:37:28.168Z,20.40
2023-08-13T00:39:54.964Z,20.30
2023-08-13T00:42:21.798Z,20.50
2023-08-13T00:44:48.483Z,20.50
2023-08-13T00:47:15.133Z,20.50
2023-08-13T00:49:41.967Z,20.50
2023-08-13T00:52:08.684Z,20.50
2023-08-13T00:54:35.487Z,20.40
2023-08-13T00:57:02.130Z,20.30
2023-08-13T00:59:28.814Z,20.20
2023-08-13T01:01:55.516Z,20.40
2023-08-13T01:04:22.196Z,19.90
2023-08-13T01:06:48.956Z,19.90
2023-08-13T01:09:15.586Z,19.70
2023-08-13T01:11:42.484Z,20.20
2023-08-13T01:14:09.161Z,20.30
2023-08-13T01:16:35.796Z,20.20
2023-08-13T01:19:02.608Z,20.40
2023-08-13T01:21:29.289Z,20.60
2023-08-13T01:23:55.998Z,20.40
2023-08-13T01:26:22.643Z,20.40
2023-08-13T01:28:49.321Z,20.20
2023-08-13T01:31:16.031Z,20.30
2023-08-13T01:33:42.730Z,20.10
2023-08-13T01:36:09.470Z,20.00
2023-08-13T01:38:36.273Z,20.10
2023-08-13T01:41:02.916Z,19.90
2023-08-13T01:43:29.662Z,19.60
2023-08-13T01:45:56.332Z,19.90
2023-08-13T01:48:23.066Z,20.10
2023-08-13T01:50:49.762Z,20.20
2023-08-13T01:53:16.483Z,20.30
2023-08-13T01:55:43.149Z,20.10
2023-08-13T01:58:09.855Z,20.20
2023-08-13T02:00:36.473Z,20.20
2023-08-13T02:03:03.193Z,20.20
2023-08-13T02:05:29.916Z,20.40
2023-08-13T02:07:56.544Z,20.10
2023-08-13T02:10:23.154Z,20.20
2023-08-13T02:12:49.866Z,19.60
2023-08-13T02:15:16.509Z,19.50
2023-08-13T02:17:43.169Z,19.60
2023-08-13T02:20:09.895Z,19.90
2023-08-13T02:22:36.564Z,19.70
2023-08-13T02:25:03.212Z,19.70
2023-08-13T02:27:29.919Z,19.60
2023-08-13T02:29:56.740Z,19.80
2023-08-13T02:32:23.426Z,20.10
2023-08-13T02:34:50.217Z,19.30
2023-08-13T02:37:16.859Z,19.60
2023-08-13T02:39:43.691Z,19.60
2023-08-13T02:42:10.397Z,19.80
2023-08-13T02:44:37.037Z,19.70
2023-08-13T02:47:03.880Z,19.60
2023-08-13T02:49:30.581Z,19.50
2023-08-13T02:51:57.369Z,19.80
2023-08-13T02:54:23.986Z,19.70
2023-08-13T02:56:50.677Z,19.90
2023-08-13T02:59:17.315Z,20.10
2023-08-13T03:01:43.976Z,20.00
2023-08-13T03:04:10.747Z,19.70
2023-08-13T03:06:37.424Z,19.60
2023-08-13T03:09:04.039Z,19.60
2023-08-13T03:11:30.902Z,19.70
2023-08-13T03:13:57.590Z,19.60
2023-08-13T03:16:24.280Z,19.20
2023-08-13T03:18:51.070Z,19.20
2023-08-13T03:21:17.919Z,19.50
2023-08-13T03:23:44.733Z,19.80
2023-08-13T03:26:11.615Z,19.50
2023-08-13T03:28:38.313Z,19.60
2023-08-13T03:31:04.931Z,19.70
2023-08-13T03:33:31.638Z,19.50
2023-08-13T03:35:58.289Z,19.60
2023-08-13T03:38:24.928Z,19.40
2023-08-13T03:40:51.635Z,19.70
2023-08-13T03:43:18.445Z,19.70
2023-08-13T03:45:47.293Z,19.70
2023-08-13T03:48:13.965Z,19.80
2023-08-13T03:50:40.595Z,19.60
2023-08-13T03:53:07.256Z,19.40
2023-08-13T03:55:34.403Z,19.30
2023-08-13T03:58:01.035Z,19.30
2023-08-13T04:00:27.679Z,19.40
2023-08-13T04:02:54.466Z,19.50
2023-08-13T04:05:21.192Z,19.30
2023-08-13T04:07:47.898Z,19.50
2023-08-13T04:10:14.585Z,19.30
2023-08-13T04:12:41.232Z,19.40
2023-08-13T04:15:08.040Z,19.40
2023-08-13T04:17:34.833Z,19.70
2023-08-13T04:20:01.534Z,19.80
2023-08-13T04:22:28.162Z,19.50
2023-08-13T04:24:54.857Z,19.70
2023-08-13T04:27:21.473Z,19.70
2023-08-13T04:29:48.122Z,19.80
2023-08-13T04:32:15.101Z,19.90
2023-08-13T04:34:42.146Z,19.80
2023-08-13T04:37:08.794Z,19.60
2023-08-13T04:39:35.456Z,19.60
2023-08-13T04:42:02.090Z,19.80
2023-08-13T04:44:28.724Z,19.90
2023-08-13T04:46:55.424Z,19.60
2023-08-13T04:49:22.260Z,19.80
2023-08-13T04:51:49.124Z,20.00
2023-08-13T04:54:15.836Z,20.20
2023-08-13T04:56:42.485Z,19.90
2023-08-13T04:59:09.285Z,20.00
2023-08-13T05:01:36.072Z,20.20
2023-08-13T05:04:02.869Z,20.40
2023-08-13T05:06:29.529Z,20.30
2023-08-13T05:08:56.231Z,20.50
2023-08-13T05:11:22.881Z,20.50
2023-08-13T05:13:49.537Z,20.60
2023-08-13T05:16:16.253Z,20.80
2023-08-13T05:18:42.933Z,21.00
2023-08-13T05:21:09.793Z,21.20
2023-08-13T05:23:36.483Z,21.50
2023-08-13T05:26:03.126Z,21.70
2023-08-13T05:28:29.762Z,21.60
2023-08-13T05:30:56.494Z,21.70
2023-08-13T05:33:23.143Z,22.00
2023-08-13T05:35:50.024Z,22.30
2023-08-13T05:38:16.706Z,22.40
2023-08-13T05:40:43.342Z,21.90
2023-08-13T05:43:10.078Z,22.10
2023-08-13T05:45:36.776Z,22.50
2023-08-13T05:48:03.426Z,22.60
2023-08-13T05:50:30.108Z,22.70
2023-08-13T05:52:56.784Z,22.70
2023-08-13T05:55:23.519Z,22.90
2023-08-13T05:57:50.150Z,23.20
2023-08-13T06:00:16.874Z,23.50
2023-08-13T06:02:43.509Z,23.70
2023-08-13T06:05:10.385Z,23.70
2023-08-13T06:07:37.108Z,23.60
2023-08-13T06:10:03.744Z,23.30
2023-08-13T06:12:30.476Z,23.60
2023-08-13T06:14:57.189Z,23.50
2023-08-13T06:17:24.218Z,23.70
2023-08-13T06:19:51.109Z,23.90
2023-08-13T06:22:18.254Z,24.10
2023-08-13T06:24:45.169Z,24.40
2023-08-13T06:27:11.953Z,24.20
2023-08-13T06:29:38.624Z,24.00
2023-08-13T06:32:05.320Z,24.00
2023-08-13T06:34:32.079Z,23.70
2023-08-13T06:36:59.434Z,23.20
2023-08-13T06:39:27.346Z,23.30
2023-08-13T06:41:53.973Z,23.00
2023-08-13T06:44:20.650Z,23.10
2023-08-13T06:46:47.348Z,23.10
2023-08-13T06:49:14.161Z,23.20
2023-08-13T06:51:40.843Z,23.10
2023-08-13T06:54:07.500Z,22.90
2023-08-13T06:56:34.390Z,23.00
2023-08-13T06:59:02.547Z,23.10
2023-08-13T07:01:30.416Z,23.10
2023-08-13T07:03:57.087Z,23.10
2023-08-13T07:06:23.769Z,23.30
2023-08-13T07:08:50.530Z,23.30
2023-08-13T07:11:17.227Z,23.30
2023-08-13T07:13:43.933Z,23.30
2023-08-13T07:16:10.815Z,23.50
2023-08-13T07:18:37.464Z,23.80
2023-08-13T07:21:04.156Z,24.00
2023-08-13T07:23:30.787Z,24.00
2023-08-13T07:25:57.454Z,24.20
2023-08-13T07:28:24.245Z,24.60
2023-08-13T07:30:50.905Z,24.90
2023-08-13T07:33:17.696Z,24.90
2023-08-13T07:35:44.514Z,25.00
2023-08-13T07:38:11.367Z,25.30
2023-08-13T07:40:38.210Z,25.20
2023-08-13T07:43:04.908Z,25.10
2023-08-13T07:45:31.664Z,24.80
2023-08-13T07:47:58.406Z,24.70
2023-08-13T07:50:25.114Z,25.00
2023-08-13T07:52:51.920Z,25.00
2023-08-13T07:55:18.561Z,25.10
2023-08-13T07:57:45.238Z,25.30
2023-08-13T08:00:12.031Z,25.40
2023-08-13T08:02:38.784Z,25.50
2023-08-13T08:05:05.598Z,25.90
2023-08-13T08:07:32.236Z,26.00
2023-08-13T08:09:58.885Z,25.90
2023-08-13T08:12:25.596Z,26.10
2023-08-13T08:14:52.232Z,26.10
2023-08-13T08:17:18.861Z,26.10
2023-08-13T08:19:45.728Z,26.10
2023-08-13T08:22:12.513Z,26.40
2023-08-13T08:24:39.314Z,26.50
2023-08-13T08:27:05.980Z,26.60
2023-08-13T08:29:32.795Z,26.50
2023-08-13T08:31:59.422Z,26.40
2023-08-13T08:34:27.232Z,26.50
2023-08-13T08:36:55.379Z,26.70
2023-08-13T08:39:22.011Z,26.90
2023-08-13T08:41:48.683Z,27.10
2023-08-13T08:44:15.534Z,27.10
2023-08-13T08:46:42.214Z,27.10
2023-08-13T08:49:08.890Z,27.30
2023-08-13T08:51:35.513Z,27.40
2023-08-13T08:54:02.130Z,27.40
2023-08-13T08:56:29.656Z,27.30
2023-08-13T08:58:56.282Z,27.20
2023-08-13T09:01:23.114Z,27.50
2023-08-13T09:03:49.832Z,27.30
2023-08-13T09:06:22.097Z,27.10
2023-08-13T09:08:49.336Z,27.30
2023-08-13T09:11:16.043Z,27.50
2023-08-13T09:13:42.653Z,27.80
2023-08-13T09:16:09.299Z,27.80
2023-08-13T09:18:36.011Z,28.00
2023-08-13T09:21:02.636Z,28.00
2023-08-13T09:23:29.271Z,28.00
2023-08-13T09:25:55.972Z,27.90
2023-08-13T09:28:22.788Z,28.10
2023-08-13T09:30:49.545Z,28.30
2023-08-13T09:33:16.260Z,28.40
2023-08-13T09:35:42.883Z,28.60
2023-08-13T09:38:09.517Z,28.50
2023-08-13T09:40:36.190Z,28.70
2023-08-13T09:43:02.824Z,28.80
2023-08-13T09:45:29.498Z,28.40
2023-08-13T09:47:56.288Z,28.40
2023-08-13T09:50:22.937Z,28.60
2023-08-13T09:52:49.618Z,28.80
2023-08-13T09:55:16.323Z,29.10
2023-08-13T09:57:42.964Z,29.30
2023-08-13T10:00:09.622Z,29.40
2023-08-13T10:02:36.462Z,28.90
2023-08-13T10:05:03.196Z,29.20
2023-08-13T10:07:29.840Z,29.20
2023-08-13T10:12:28.668Z,29.40
2023-08-13T10:14:55.288Z,29.40
2023-08-13T10:17:21.988Z,29.50
2023-08-13T10:19:48.630Z,29.60
2023-08-13T10:22:16.906Z,29.80
2023-08-13T10:24:43.800Z,29.80
2023-08-13T10:27:10.458Z,30.20
2023-08-13T10:29:37.263Z,29.90
2023-08-13T10:32:04.073Z,30.00
2023-08-13T10:34:30.876Z,29.90
2023-08-13T10:36:57.492Z,30.00
2023-08-13T10:39:24.149Z,30.20
2023-08-13T10:41:50.767Z,30.40
2023-08-13T10:44:17.403Z,29.90
2023-08-13T10:46:44.082Z,30.20
2023-08-13T10:49:10.726Z,30.30
2023-08-13T10:51:37.367Z,30.00
2023-08-13T10:54:04.051Z,30.20
2023-08-13T10:56:30.689Z,30.80
2023-08-13T10:58:57.323Z,30.50
2023-08-13T11:01:24.004Z,30.30
2023-08-13T11:03:50.721Z,30.60
2023-08-13T11:06:17.506Z,30.70
2023-08-13T11:08:48.080Z,30.80
2023-08-13T11:11:15.445Z,30.90
2023-08-13T11:13:42.097Z,31.50
2023-08-13T11:16:08.956Z,31.60
2023-08-13T11:18:35.691Z,31.60
2023-08-13T11:21:02.315Z,31.70
2023-08-13T11:23:29.033Z,31.30
2023-08-13T11:25:55.647Z,31.50
2023-08-13T11:28:22.451Z,31.80
2023-08-13T11:30:49.150Z,31.90
2023-08-13T11:33:15.930Z,32.00
2023-08-13T11:35:42.643Z,32.20
2023-08-13T11:38:09.368Z,32.00
2023-08-13T11:40:36.011Z,32.20
2023-08-13T11:43:02.620Z,32.20
2023-08-13T11:45:29.357Z,31.60
2023-08-13T11:47:56.029Z,31.60
2023-08-13T11:50:22.779Z,31.90
2023-08-13T11:52:49.461Z,31.80
2023-08-13T11:55:16.105Z,31.90
2023-08-13T11:57:42.774Z,32.00
2023-08-13T12:00:09.444Z,32.30
2023-08-13T12:02:38.368Z,32.10
2023-08-13T12:05:06.906Z,32.00
2023-08-13T12:07:33.626Z,31.80
2023-08-13T12:10:00.267Z,31.70
2023-08-13T12:12:27.110Z,31.70
2023-08-13T12:14:53.934Z,31.90
2023-08-13T12:17:20.708Z,32.30
2023-08-13T12:19:47.460Z,32.30
2023-08-13T12:22:14.428Z,31.80
2023-08-13T12:24:41.277Z,32.10
2023-08-13T12:27:07.956Z,32.00
2023-08-13T12:29:34.708Z,32.20
2023-08-13T12:32:03.486Z,32.40
2023-08-13T12:34:31.202Z,31.80
2023-08-13T12:36:57.922Z,32.00
2023-08-13T12:39:24.572Z,31.80
2023-08-13T12:41:51.231Z,32.10
2023-08-13T12:44:17.966Z,32.30
2023-08-13T12:46:44.654Z,32.20
2023-08-13T12:49:11.375Z,32.70
2023-08-13T12:51:38.196Z,32.40
2023-08-13T12:54:04.849Z,32.20
2023-08-13T12:56:31.483Z,32.40
2023-08-13T12:58:58.224Z,32.60
2023-08-13T13:01:24.895Z,32.60
2023-08-13T13:03:51.614Z,33.00
2023-08-13T13:06:18.361Z,33.50
2023-08-13T13:08:45.126Z,33.40
2023-08-13T13:11:12.090Z,33.30
2023-08-13T13:13:38.806Z,33.30
2023-08-13T13:16:05.762Z,32.90
2023-08-13T13:18:32.478Z,32.70
2023-08-13T13:20:59.184Z,32.40
2023-08-13T13:23:25.894Z,32.00
2023-08-13T13:25:52.766Z,32.70
2023-08-13T13:28:19.836Z,32.60
2023-08-13T13:30:46.505Z,32.30
2023-08-13T13:33:13.284Z,31.90
2023-08-13T13:35:40.086Z,31.80
2023-08-13T13:38:06.729Z,32.00
2023-08-13T13:40:33.392Z,32.40
2023-08-13T13:43:00.451Z,32.50
2023-08-13T13:45:27.209Z,32.10
2023-08-13T13:47:54.076Z,32.10
2023-08-13T13:50:20.807Z,31.80
2023-08-13T13:52:47.478Z,32.00
2023-08-13T13:55:14.139Z,31.80
2023-08-13T13:57:41.035Z,32.30
2023-08-13T14:00:07.796Z,32.00
2023-08-13T14:02:34.492Z,32.10
2023-08-13T14:05:01.248Z,32.10
2023-08-13T14:07:27.910Z,32.10
2023-08-13T14:09:54.544Z,32.00
2023-08-13T14:12:21.219Z,32.00
2023-08-13T14:14:47.974Z,32.40
2023-08-13T14:17:14.625Z,32.40
2023-08-13T14:19:41.365Z,31.90
2023-08-13T14:22:08.008Z,31.70
2023-08-13T14:24:34.653Z,31.80
2023-08-13T14:27:01.354Z,32.00
2023-08-13T14:29:28.046Z,32.30
2023-08-13T14:31:54.692Z,31.90
2023-08-13T14:34:21.364Z,32.20
2023-08-13T14:36:47.995Z,32.20
2023-08-13T14:39:14.629Z,32.60
2023-08-13T14:41:41.309Z,32.90
2023-08-13T14:44:07.981Z,32.60
2023-08-13T14:46:34.669Z,32.50
2023-08-13T14:49:02.082Z,32.70
2023-08-13T14:51:28.961Z,32.60
2023-08-13T14:53:55.661Z,32.40
2023-08-13T14:56:22.524Z,32.30
2023-08-13T14:58:49.175Z,32.40
2023-08-13T15:01:15.871Z,31.90
2023-08-13T15:03:42.596Z,32.20
2023-08-13T15:06:09.307Z,32.50
2023-08-13T15:08:36.025Z,32.30
2023-08-13T15:11:02.735Z,32.30
2023-08-13T15:13:29.376Z,32.40
2023-08-13T15:15:56.046Z,32.90
2023-08-13T15:18:22.789Z,32.50
2023-08-13T15:20:49.471Z,32.70
2023-08-13T15:23:16.201Z,32.60
2023-08-13T15:25:55.177Z,32.70
2023-08-13T15:28:22.986Z,32.50
2023-08-13T15:30:49.717Z,32.30
2023-08-13T15:33:16.358Z,31.80
2023-08-13T15:35:43.049Z,32.00
2023-08-13T15:38:09.750Z,32.40
2023-08-13T15:40:36.401Z,32.20
2023-08-13T15:43:03.133Z,31.90
2023-08-13T15:45:29.926Z,31.20
2023-08-13T15:47:56.836Z,31.20
2023-08-13T15:50:23.531Z,31.20
2023-08-13T15:52:50.252Z,31.40
2023-08-13T15:55:17.260Z,31.60
2023-08-13T15:57:43.915Z,31.40
2023-08-13T16:00:10.637Z,31.80
2023-08-13T16:02:37.442Z,32.00
2023-08-13T16:05:04.436Z,31.60
2023-08-13T16:07:31.222Z,31.90
2023-08-13T16:09:57.866Z,32.00
2023-08-13T16:12:24.544Z,32.00
2023-08-13T16:14:51.464Z,32.30
2023-08-13T16:17:18.422Z,31.50
2023-08-13T16:19:45.372Z,31.30
2023-08-13T16:22:12.099Z,31.10
2023-08-13T16:24:38.755Z,30.60
2023-08-13T16:27:05.556Z,30.70
2023-08-13T16:29:32.268Z,31.30
2023-08-13T16:32:00.306Z,31.30
2023-08-13T16:34:27.095Z,30.90
2023-08-13T16:36:53.991Z,30.90
2023-08-13T16:39:20.671Z,30.80
2023-08-13T16:41:47.373Z,30.80
2023-08-13T16:44:14.170Z,30.40
2023-08-13T16:46:41.140Z,30.50
2023-08-13T16:49:07.812Z,30.10
2023-08-13T16:51:34.683Z,30.00
2023-08-13T16:54:01.328Z,30.20
2023-08-13T16:56:30.527Z,30.20
2023-08-13T16:58:57.215Z,30.40
2023-08-13T17:01:23.983Z,30.00
2023-08-13T17:03:50.858Z,29.70
2023-08-13T17:06:17.931Z,29.40
2023-08-13T17:08:47.409Z,29.30
2023-08-13T17:11:15.781Z,29.00
2023-08-13T17:13:42.647Z,28.80
2023-08-13T17:16:09.658Z,28.60
2023-08-13T17:18:36.561Z,28.70
2023-08-13T17:21:03.427Z,28.80
2023-08-13T17:23:30.325Z,28.70
2023-08-13T17:25:56.969Z,28.60
2023-08-13T17:28:23.881Z,28.60
2023-08-13T17:30:50.532Z,28.60
2023-08-13T17:33:17.197Z,28.80
2023-08-13T17:35:43.912Z,29.10
2023-08-13T17:38:10.650Z,28.60
2023-08-13T17:40:37.376Z,28.70
2023-08-13T17:43:04.262Z,28.80
2023-08-13T17:45:30.940Z,28.50
2023-08-13T17:47:57.690Z,28.60
2023-08-13T17:50:24.439Z,28.30
2023-08-13T17:52:51.088Z,28.30
2023-08-13T17:55:17.965Z,28.60
2023-08-13T17:57:44.653Z,28.70
2023-08-13T18:00:11.328Z,28.80
2023-08-13T18:02:38.206Z,28.90
2023-08-13T18:05:04.978Z,28.90
2023-08-13T18:07:31.804Z,28.90
2023-08-13T18:09:58.682Z,29.00
2023-08-13T18:12:25.655Z,28.60
2023-08-13T18:14:52.499Z,28.50
2023-08-13T18:17:19.405Z,28.50
2023-08-13T18:19:46.509Z,28.60
2023-08-13T18:22:13.172Z,28.30
2023-08-13T18:24:39.979Z,27.70
2023-08-13T18:27:06.690Z,27.80
2023-08-13T18:29:33.547Z,28.00
2023-08-13T18:32:00.435Z,28.10
2023-08-13T18:34:27.370Z,28.00
2023-08-13T18:36:54.105Z,28.00
2023-08-13T18:39:20.774Z,28.00
2023-08-13T18:41:47.645Z,28.00
2023-08-13T18:44:14.343Z,27.80
2023-08-13T18:46:41.173Z,27.70
2023-08-13T18:49:08.134Z,27.80
2023-08-13T18:51:34.797Z,27.80
2023-08-13T18:54:01.662Z,27.80
2023-08-13T18:56:28.377Z,27.70
2023-08-13T18:58:55.052Z,27.60
2023-08-13T19:01:21.750Z,27.40
2023-08-13T19:03:48.705Z,27.40
2023-08-13T19:06:15.543Z,27.20
2023-08-13T19:08:42.177Z,27.00
2023-08-13T19:11:08.863Z,27.10
2023-08-13T19:13:35.602Z,27.20
2023-08-13T19:16:02.377Z,27.30
2023-08-13T19:18:29.134Z,27.20
2023-08-13T19:20:55.901Z,27.00
2023-08-13T19:23:22.575Z,27.00
2023-08-13T19:25:49.276Z,26.50
2023-08-13T19:28:15.923Z,26.40
2023-08-13T19:30:42.803Z,26.50
2023-08-13T19:33:09.553Z,26.60
2023-08-13T19:35:36.241Z,26.70
2023-08-13T19:38:03.052Z,26.60
2023-08-13T19:40:29.858Z,26.40
2023-08-13T19:42:56.505Z,26.00
2023-08-13T19:45:23.255Z,26.10
2023-08-13T19:47:49.944Z,26.10
2023-08-13T19:50:16.612Z,25.90
2023-08-13T19:52:43.280Z,26.00
2023-08-13T19:55:10.166Z,26.20
2023-08-13T19:57:36.848Z,26.10
2023-08-13T20:00:03.514Z,26.00
2023-08-13T20:02:30.349Z,25.90
2023-08-13T20:04:57.236Z,25.70
2023-08-13T20:07:23.885Z,25.80
2023-08-13T20:09:50.781Z,25.90
2023-08-13T20:12:17.839Z,25.90
2023-08-13T20:14:44.873Z,25.80
2023-08-13T20:17:11.943Z,25.80
2023-08-13T20:19:38.627Z,25.70
2023-08-13T20:22:05.501Z,25.40
2023-08-13T20:24:32.314Z,24.70
2023-08-13T20:26:58.992Z,24.80
2023-08-13T20:29:25.827Z,25.10
2023-08-13T20:31:52.639Z,25.10
2023-08-13T20:34:19.575Z,24.70
2023-08-13T20:36:46.313Z,24.80
2023-08-13T20:39:13.000Z,25.00
2023-08-13T20:41:39.682Z,25.20
2023-08-13T20:44:06.534Z,25.10
2023-08-13T20:46:33.513Z,25.00
2023-08-13T20:49:00.456Z,24.90
2023-08-13T20:51:27.447Z,25.00
2023-08-13T20:53:54.367Z,24.90
2023-08-13T20:56:21.029Z,25.00
2023-08-13T20:58:47.764Z,24.90
2023-08-13T21:01:14.515Z,24.80
2023-08-13T21:03:41.219Z,24.60
2023-08-13T21:06:07.899Z,24.60
2023-08-13T21:08:34.606Z,24.60
2023-08-13T21:11:01.467Z,24.50
2023-08-13T21:13:28.346Z,24.60
2023-08-13T21:15:55.064Z,24.60
2023-08-13T21:18:21.828Z,24.50
2023-08-13T21:20:48.534Z,24.50
2023-08-13T21:23:15.282Z,24.60
2023-08-13T21:25:41.983Z,24.50
2023-08-13T21:28:08.679Z,24.50
2023-08-13T21:30:35.506Z,24.40
2023-08-13T21:33:02.416Z,23.90
2023-08-13T21:35:29.320Z,23.70
2023-08-13T21:37:56.025Z,23.80
2023-08-13T21:40:22.666Z,24.10
2023-08-13T21:42:49.549Z,24.10
2023-08-13T21:45:16.249Z,23.80
2023-08-13T21:47:42.937Z,23.50
2023-08-13T21:50:09.795Z,23.70
2023-08-13T21:52:36.514Z,23.90
2023-08-13T21:55:03.404Z,24.00
2023-08-13T21:57:30.300Z,23.70
2023-08-13T21:59:57.015Z,23.70
2023-08-13T22:02:23.883Z,23.40
2023-08-13T22:04:50.627Z,23.30
2023-08-13T22:07:17.540Z,23.10
2023-08-13T22:09:44.368Z,22.90
2023-08-13T22:12:11.030Z,23.40
2023-08-13T22:14:37.741Z,23.60
2023-08-13T22:17:04.404Z,23.60
2023-08-13T22:19:31.047Z,23.70
2023-08-13T22:21:57.758Z,23.80
2023-08-13T22:24:24.501Z,23.90
2023-08-13T22:26:51.166Z,23.70
2023-08-13T22:29:17.878Z,23.60
2023-08-13T22:31:44.671Z,23.60
2023-08-13T22:34:11.337Z,23.30
2023-08-13T22:36:38.034Z,23.10
2023-08-13T22:39:04.685Z,23.10
2023-08-13T22:41:31.343Z,23.00
2023-08-13T22:43:58.454Z,23.40
2023-08-13T22:46:25.506Z,23.30
2023-08-13T22:48:52.434Z,23.30
2023-08-13T22:51:19.325Z,23.40
2023-08-13T22:53:46.033Z,23.50
2023-08-13T22:56:12.679Z,23.40
2023-08-13T22:58:39.523Z,22.90
2023-08-13T23:01:06.223Z,22.70
2023-08-13T23:03:33.101Z,22.60
2023-08-13T23:06:00.015Z,23.00
2023-08-13T23:08:26.785Z,23.20
2023-08-13T23:10:53.414Z,23.30
2023-08-13T23:13:20.346Z,23.20
2023-08-13T23:15:47.125Z,23.20
2023-08-13T23:18:13.834Z,23.00
2023-08-13T23:20:40.653Z,22.90
2023-08-13T23:23:07.307Z,23.20
2023-08-13T23:25:34.144Z,23.00
2023-08-13T23:28:00.942Z,22.70
2023-08-13T23:30:27.693Z,22.70
2023-08-13T23:32:54.398Z,22.80
2023-08-13T23:35:21.116Z,22.90
2023-08-13T23:37:47.776Z,23.00
2023-08-13T23:40:14.438Z,23.00
2023-08-13T23:42:41.172Z,22.70
2023-08-13T23:45:07.819Z,22.70
2023-08-13T23:47:34.592Z,22.80
2023-08-13T23:50:03.808Z,22.70
2023-08-13T23:52:32.396Z,22.70
2023-08-13T23:54:59.074Z,22.70
2023-08-13T23:57:25.796Z,22.80
2023-08-13T23:59:52.634Z,22.50
